M/T Pazar — TCMC — position and weather

sailwx.info

Track history (hours):
 
Tides and Currents Weather Stations Pressure Air Temp Water Temp Dewpoint Dewpoint Depression Visibility Wind Speed Wind Dir Waves Ship Positions

M/T Pazar

Last reported at 2016-May-29 19:19 UTC. Time now 2016-May-30 03:08 UTC.
Position N 38°45' E 008°41'.

Length 85 m; draft 5.4 m.

Type: Tanker. MMSI: 271000251.

Date/timePositionNaut miles runAvg speedWind from/ knotsBaromVisibWave heightAir tempDewpointWater temp
2016-May-29 19:19N 38°45' E 008°41'7 8.8
2016-May-29 18:32N 38°42' E 008°49'147 9.1
2016-May-29 02:23N 37°46' E 011°43'1010.7
2016-May-29 01:27N 37°42' E 011°54'1010.9
2016-May-29 00:33N 37°38' E 012°05'1010.5
2016-May-28 23:33N 37°34' E 012°17'7110.1
2016-May-28 16:33N 37°04' E 013°38'1110.5
2016-May-28 15:32N 36°59' E 013°50'1010.4
2016-May-28 14:33N 36°55' E 014°02'10 9.9
2016-May-28 13:34N 36°50' E 014°13'10 9.9
2016-May-28 12:33N 36°46' E 014°24'1010.3
2016-May-28 11:33N 36°42' E 014°36'1110.6
2016-May-28 10:33N 36°38' E 014°48'1110.6
2016-May-28 09:33N 36°37' E 015°01'1110.8
2016-May-28 08:33N 36°36' E 015°15'1110.5
2016-May-28 07:31N 36°36' E 015°28'1010.6
2016-May-28 06:33N 36°37' E 015°41'1110.7
2016-May-28 05:33N 36°36' E 015°54'362 9.7
2016-May-26 16:19N 36°41' E 023°25'810.1
2016-May-26 15:33N 36°48' E 023°31'1110.0
2016-May-26 14:27N 36°57' E 023°37'4110.4
2016-May-26 10:31N 37°32' E 024°05'  
2016-May-22 02:33N 45°59' E 030°49'1010.4
2016-May-22 01:33N 46°09' E 030°53'1010.1
2016-May-22 00:33N 46°19' E 030°55'1010.2
2016-May-21 23:33N 46°29' E 030°55'8 8.0
2016-May-21 22:33N 46°34' E 031°04'11 9.9
2016-May-21 21:27N 46°35' E 031°20'8 9.4
2016-May-21 20:33N 46°35' E 031°32'10 9.9
2016-May-21 19:33N 46°36' E 031°46'9 8.7
2016-May-21 18:33N 46°41' E 031°56'5 1.6
2016-May-21 15:24N 46°46' E 031°57'0 0.0
2016-May-21 09:30N 46°46' E 031°57'0 0.0
2016-May-21 07:30N 46°46' E 031°57'0 0.0
2016-May-21 06:30N 46°46' E 031°57'0 0.0
2016-May-21 05:30N 46°46' E 031°57'0 0.0
2016-May-21 04:24N 46°46' E 031°57'0 0.0
2016-May-21 03:33N 46°46' E 031°57'0 0.0
2016-May-21 02:12N 46°46' E 031°57'0 0.0
2016-May-21 01:18N 46°46' E 031°57'0 0.0
2016-May-21 00:27N 46°46' E 031°57'0 0.0
2016-May-20 23:33N 46°46' E 031°57'0 0.0
2016-May-20 22:30N 46°46' E 031°57'0 0.0
2016-May-20 21:30N 46°46' E 031°57'0 0.0
2016-May-20 20:30N 46°46' E 031°57'0 0.0
2016-May-20 19:30N 46°46' E 031°57'0 0.0
2016-May-20 18:30N 46°46' E 031°57'0 0.0
2016-May-20 17:30N 46°46' E 031°57'0 0.0
2016-May-20 16:33N 46°46' E 031°57'0 0.0
2016-May-20 15:33N 46°46' E 031°57'0 0.0
2016-May-20 14:30N 46°46' E 031°57'0 0.1
2016-May-20 13:33N 46°46' E 031°57'7 6.8
2016-May-20 12:33N 46°39' E 031°56'2110.1
2016-May-20 10:26N 46°35' E 031°26'1011.1
2016-May-20 09:33N 46°35' E 031°11'1110.6
2016-May-20 08:33N 46°32' E 030°57'1211.6
2016-May-20 07:33N 46°20' E 030°57'1111.2
2016-May-20 06:33N 46°11' E 031°05'1210.7
2016-May-20 05:25N 45°58' E 031°03'  
Track history (hours):
 
Tides and Currents Weather Stations Pressure Air Temp Water Temp Dewpoint Dewpoint Depression Visibility Wind Speed Wind Dir Waves Ship Positions

M/T Pazar

Last reported at 2016-May-29 19:19 UTC. Time now 2016-May-30 03:08 UTC.
Position N 38°45' E 008°41'.

Length 85 m; draft 5.4 m.

Type: Tanker. MMSI: 271000251.

Date/timePositionNaut miles runAvg speedWind from/ knotsBaromVisibWave heightAir tempDewpointWater temp
2016-May-29 19:19N 38°45' E 008°41'7 8.8
2016-May-29 18:32N 38°42' E 008°49'147 9.1
2016-May-29 02:23N 37°46' E 011°43'1010.7
2016-May-29 01:27N 37°42' E 011°54'1010.9
2016-May-29 00:33N 37°38' E 012°05'1010.5
2016-May-28 23:33N 37°34' E 012°17'7110.1
2016-May-28 16:33N 37°04' E 013°38'1110.5
2016-May-28 15:32N 36°59' E 013°50'1010.4
2016-May-28 14:33N 36°55' E 014°02'10 9.9
2016-May-28 13:34N 36°50' E 014°13'10 9.9
2016-May-28 12:33N 36°46' E 014°24'1010.3
2016-May-28 11:33N 36°42' E 014°36'1110.6
2016-May-28 10:33N 36°38' E 014°48'1110.6
2016-May-28 09:33N 36°37' E 015°01'1110.8
2016-May-28 08:33N 36°36' E 015°15'1110.5
2016-May-28 07:31N 36°36' E 015°28'1010.6
2016-May-28 06:33N 36°37' E 015°41'1110.7
2016-May-28 05:33N 36°36' E 015°54'362 9.7
2016-May-26 16:19N 36°41' E 023°25'810.1
2016-May-26 15:33N 36°48' E 023°31'1110.0
2016-May-26 14:27N 36°57' E 023°37'4110.4
2016-May-26 10:31N 37°32' E 024°05'  
2016-May-22 02:33N 45°59' E 030°49'1010.4
2016-May-22 01:33N 46°09' E 030°53'1010.1
2016-May-22 00:33N 46°19' E 030°55'1010.2
2016-May-21 23:33N 46°29' E 030°55'8 8.0
2016-May-21 22:33N 46°34' E 031°04'11 9.9
2016-May-21 21:27N 46°35' E 031°20'8 9.4
2016-May-21 20:33N 46°35' E 031°32'10 9.9
2016-May-21 19:33N 46°36' E 031°46'9 8.7
2016-May-21 18:33N 46°41' E 031°56'5 1.6
2016-May-21 15:24N 46°46' E 031°57'0 0.0
2016-May-21 09:30N 46°46' E 031°57'0 0.0
2016-May-21 07:30N 46°46' E 031°57'0 0.0
2016-May-21 06:30N 46°46' E 031°57'0 0.0
2016-May-21 05:30N 46°46' E 031°57'0 0.0
2016-May-21 04:24N 46°46' E 031°57'0 0.0
2016-May-21 03:33N 46°46' E 031°57'0 0.0
2016-May-21 02:12N 46°46' E 031°57'0 0.0
2016-May-21 01:18N 46°46' E 031°57'0 0.0
2016-May-21 00:27N 46°46' E 031°57'0 0.0
2016-May-20 23:33N 46°46' E 031°57'0 0.0
2016-May-20 22:30N 46°46' E 031°57'0 0.0
2016-May-20 21:30N 46°46' E 031°57'0 0.0
2016-May-20 20:30N 46°46' E 031°57'0 0.0
2016-May-20 19:30N 46°46' E 031°57'0 0.0
2016-May-20 18:30N 46°46' E 031°57'0 0.0
2016-May-20 17:30N 46°46' E 031°57'0 0.0
2016-May-20 16:33N 46°46' E 031°57'0 0.0
2016-May-20 15:33N 46°46' E 031°57'0 0.0
2016-May-20 14:30N 46°46' E 031°57'0 0.1
2016-May-20 13:33N 46°46' E 031°57'7 6.8
2016-May-20 12:33N 46°39' E 031°56'2110.1
2016-May-20 10:26N 46°35' E 031°26'1011.1
2016-May-20 09:33N 46°35' E 031°11'1110.6
2016-May-20 08:33N 46°32' E 030°57'1211.6
2016-May-20 07:33N 46°20' E 030°57'1111.2
2016-May-20 06:33N 46°11' E 031°05'1210.7
2016-May-20 05:25N 45°58' E 031°03'  

Dump ship's entire track history